createdAt,value
2018-09-18T00:00:05.820Z,0.30
2018-09-18T00:02:35.580Z,0.30
2018-09-18T00:05:05.623Z,0.30
2018-09-18T00:07:35.291Z,0.30
2018-09-18T00:10:05.287Z,0.30
2018-09-18T00:12:34.878Z,0.30
2018-09-18T00:15:06.638Z,0.30
2018-09-18T00:17:36.932Z,0.30
2018-09-18T00:20:06.542Z,0.40
2018-09-18T00:22:36.011Z,0.30
2018-09-18T00:25:05.809Z,0.30
2018-09-18T00:27:35.790Z,0.50
2018-09-18T00:30:05.462Z,0.77
2018-09-18T00:32:34.903Z,0.30
2018-09-18T00:35:04.725Z,0.30
2018-09-18T00:37:34.690Z,0.30
2018-09-18T00:40:04.425Z,0.30
2018-09-18T00:42:33.849Z,0.40
2018-09-18T00:45:03.804Z,0.30
2018-09-18T00:47:33.490Z,0.30
2018-09-18T00:50:02.900Z,0.30
2018-09-18T00:52:32.667Z,0.37
2018-09-18T00:55:02.641Z,0.30
2018-09-18T00:57:32.592Z,0.30
2018-09-18T01:00:02.222Z,0.30
2018-09-18T01:02:31.964Z,0.30
2018-09-18T01:05:01.642Z,0.30
2018-09-18T01:07:31.158Z,0.30
2018-09-18T01:10:01.058Z,0.30
2018-09-18T01:12:30.688Z,0.30
2018-09-18T01:15:00.524Z,0.30
2018-09-18T01:17:30.542Z,0.30
2018-09-18T01:20:00.500Z,0.30
2018-09-18T01:22:30.474Z,0.30
2018-09-18T01:25:00.432Z,0.40
2018-09-18T01:27:30.380Z,0.40
2018-09-18T01:30:00.092Z,0.30
2018-09-18T01:32:29.876Z,0.30
2018-09-18T01:34:59.790Z,0.40
2018-09-18T01:37:29.798Z,0.40
2018-09-18T01:39:59.526Z,0.30
2018-09-18T01:42:29.889Z,0.30
2018-09-18T01:50:55.334Z,0.50
2018-09-18T01:53:46.426Z,0.60
2018-09-18T01:56:28.417Z,0.30
2018-09-18T01:59:09.368Z,0.30
2018-09-18T02:01:50.198Z,0.40
2018-09-18T02:04:31.543Z,0.30
2018-09-18T02:07:15.450Z,0.30
2018-09-18T02:09:48.036Z,0.30
2018-09-18T02:12:21.758Z,0.30
2018-09-18T02:14:51.502Z,0.40
2018-09-18T02:17:20.945Z,0.30
2018-09-18T02:19:50.694Z,0.30
2018-09-18T02:22:20.700Z,0.30
2018-09-18T02:24:50.303Z,0.63
2018-09-18T02:27:20.785Z,0.30
2018-09-18T02:29:50.743Z,0.30
2018-09-18T02:32:20.756Z,0.30
2018-09-18T02:34:50.789Z,0.40
2018-09-18T02:37:20.194Z,0.40
2018-09-18T02:39:50.053Z,0.40
2018-09-18T02:42:20.728Z,0.30
2018-09-18T02:44:50.670Z,0.30
2018-09-18T02:47:20.467Z,0.30
2018-09-18T02:49:50.484Z,0.30
2018-09-18T02:52:20.706Z,0.30
2018-09-18T02:54:50.354Z,0.40
2018-09-18T02:57:20.144Z,1.33
2018-09-18T02:59:50.210Z,0.30
2018-09-18T03:02:19.875Z,0.30
2018-09-18T03:04:49.293Z,0.30
2018-09-18T03:07:18.711Z,0.30
2018-09-18T03:09:48.497Z,1.37
2018-09-18T03:12:18.444Z,0.40
2018-09-18T03:14:48.176Z,0.30
2018-09-18T03:17:17.626Z,0.30
2018-09-18T03:19:47.064Z,0.37
2018-09-18T03:22:16.907Z,0.40
2018-09-18T03:24:46.521Z,0.30
2018-09-18T03:27:16.890Z,0.30
2018-09-18T03:29:46.399Z,0.73
2018-09-18T03:32:16.227Z,0.40
2018-09-18T03:34:45.870Z,0.30
2018-09-18T03:37:15.611Z,0.30
2018-09-18T03:39:45.628Z,0.30
2018-09-18T03:42:15.282Z,0.30
2018-09-18T03:44:44.761Z,0.40
2018-09-18T03:47:14.185Z,0.30
2018-09-18T03:49:43.641Z,0.40
2018-09-18T03:52:13.397Z,0.40
2018-09-18T03:54:44.121Z,0.33
2018-09-18T03:57:13.569Z,0.67
2018-09-18T03:59:43.072Z,0.30
2018-09-18T04:02:12.819Z,0.40
2018-09-18T04:04:42.478Z,0.40
2018-09-18T04:07:11.927Z,0.37
2018-09-18T04:09:41.330Z,0.40
2018-09-18T04:12:11.323Z,0.40
2018-09-18T04:14:42.744Z,0.50
2018-09-18T04:17:12.398Z,0.33
2018-09-18T04:19:41.866Z,0.40
2018-09-18T04:22:11.640Z,0.33
2018-09-18T04:24:41.300Z,0.30
2018-09-18T04:27:10.741Z,0.30
2018-09-18T04:29:40.589Z,0.40
2018-09-18T04:32:10.217Z,0.30
2018-09-18T04:34:39.672Z,0.30
2018-09-18T04:37:09.106Z,0.40
2018-09-18T04:39:38.570Z,0.30
2018-09-18T04:42:08.316Z,0.40
2018-09-18T04:44:37.982Z,0.40
2018-09-18T04:47:07.570Z,0.33
2018-09-18T04:49:37.336Z,0.30
2018-09-18T04:52:06.970Z,0.50
2018-09-18T04:54:38.570Z,0.30
2018-09-18T04:57:08.599Z,0.40
2018-09-18T04:59:38.279Z,0.30
2018-09-18T05:02:08.110Z,0.30
2018-09-18T05:04:37.828Z,0.30
2018-09-18T05:07:07.620Z,0.30
2018-09-18T05:09:37.268Z,0.30
2018-09-18T05:12:06.646Z,0.30
2018-09-18T05:14:36.527Z,0.30
2018-09-18T05:17:06.495Z,0.30
2018-09-18T05:19:36.148Z,0.30
2018-09-18T05:22:05.934Z,0.30
2018-09-18T05:24:35.606Z,0.70
2018-09-18T05:27:05.487Z,0.60
2018-09-18T05:29:35.468Z,0.30
2018-09-18T05:32:05.677Z,0.30
2018-09-18T05:34:35.324Z,0.30
2018-09-18T05:37:05.265Z,0.30
2018-09-18T05:39:35.284Z,0.40
2018-09-18T05:42:05.314Z,0.33
2018-09-18T05:44:34.994Z,0.50
2018-09-18T05:47:05.770Z,0.30
2018-09-18T05:49:35.476Z,0.30
2018-09-18T05:52:05.071Z,0.30
2018-09-18T05:54:34.554Z,0.30
2018-09-18T05:57:04.414Z,0.30
2018-09-18T05:59:34.488Z,0.30
2018-09-18T06:02:04.730Z,0.30
2018-09-18T06:04:34.794Z,0.30
2018-09-18T06:07:04.945Z,0.30
2018-09-18T06:09:34.608Z,0.30
2018-09-18T06:12:04.196Z,0.30
2018-09-18T06:14:33.739Z,0.40
2018-09-18T06:17:03.668Z,0.30
2018-09-18T06:19:33.842Z,0.30
2018-09-18T06:22:03.920Z,0.30
2018-09-18T06:24:33.668Z,0.40
2018-09-18T06:27:03.593Z,1.30
2018-09-18T06:29:33.640Z,0.30
2018-09-18T06:32:03.485Z,0.30
2018-09-18T06:34:33.560Z,2.70
2018-09-18T06:37:04.851Z,0.30
2018-09-18T06:39:34.733Z,0.30
2018-09-18T06:42:04.846Z,0.30
2018-09-18T06:44:34.505Z,0.60
2018-09-18T06:47:04.520Z,0.40
2018-09-18T06:49:34.600Z,0.67
2018-09-18T06:52:04.665Z,0.40
2018-09-18T06:54:34.434Z,0.30
2018-09-18T06:57:09.203Z,0.30
2018-09-18T06:59:38.773Z,0.40
2018-09-18T07:02:08.260Z,0.63
2018-09-18T07:04:37.769Z,1.47
2018-09-18T07:07:07.576Z,0.30
2018-09-18T07:09:37.262Z,0.30
2018-09-18T07:12:06.814Z,0.40
2018-09-18T07:14:36.660Z,0.30
2018-09-18T07:17:06.802Z,0.30
2018-09-18T07:19:36.600Z,0.30
2018-09-18T07:22:06.084Z,0.30
2018-09-18T07:24:35.912Z,0.30
2018-09-18T07:27:05.649Z,0.30
2018-09-18T07:29:35.450Z,0.30
2018-09-18T07:32:05.429Z,0.30
2018-09-18T07:34:35.057Z,0.40
2018-09-18T07:37:04.492Z,0.40
2018-09-18T07:39:33.912Z,0.30
2018-09-18T07:42:03.692Z,0.30
2018-09-18T07:44:33.340Z,0.50
2018-09-18T07:47:02.776Z,0.40
2018-09-18T07:49:32.216Z,1.33
2018-09-18T07:52:02.030Z,0.30
2018-09-18T07:54:31.990Z,0.40
2018-09-18T07:57:01.641Z,0.30
2018-09-18T07:59:31.030Z,0.30
2018-09-18T08:02:00.498Z,0.30
2018-09-18T08:04:29.899Z,0.40
2018-09-18T08:06:59.742Z,0.30
2018-09-18T08:09:29.421Z,0.40
2018-09-18T08:11:58.820Z,0.30
2018-09-18T08:14:28.754Z,0.30
2018-09-18T08:16:58.424Z,0.30
2018-09-18T08:19:27.909Z,0.30
2018-09-18T08:21:57.626Z,0.40
2018-09-18T08:24:27.637Z,0.30
2018-09-18T08:26:57.691Z,0.30
2018-09-18T08:29:27.446Z,0.30
2018-09-18T08:31:57.211Z,0.37
2018-09-18T08:34:27.334Z,0.30
2018-09-18T08:36:56.962Z,0.30
2018-09-18T08:39:26.714Z,0.30
2018-09-18T08:41:56.387Z,0.30
2018-09-18T08:44:26.145Z,0.33
2018-09-18T08:46:55.810Z,0.40
2018-09-18T08:49:25.700Z,0.30
2018-09-18T08:51:55.881Z,0.30
2018-09-18T08:54:25.859Z,0.40
2018-09-18T08:56:55.962Z,0.30
2018-09-18T08:59:29.348Z,0.40
2018-09-18T09:01:59.354Z,0.30
2018-09-18T09:04:29.060Z,0.30
2018-09-18T09:06:58.450Z,0.30
2018-09-18T09:09:28.299Z,0.30
2018-09-18T09:11:58.244Z,1.07
2018-09-18T09:14:27.981Z,0.33
2018-09-18T09:16:58.816Z,0.30
2018-09-18T09:19:28.247Z,0.40
2018-09-18T09:21:58.168Z,0.30
2018-09-18T09:24:27.791Z,0.30
2018-09-18T09:26:57.306Z,0.30
2018-09-18T09:29:27.047Z,0.30
2018-09-18T09:31:57.075Z,0.30
2018-09-18T09:34:26.698Z,0.30
2018-09-18T09:36:56.227Z,0.40
2018-09-18T09:39:26.008Z,0.30
2018-09-18T09:41:56.110Z,0.40
2018-09-18T09:44:25.781Z,0.30
2018-09-18T09:46:55.570Z,0.40
2018-09-18T09:49:25.658Z,0.30
2018-09-18T09:51:55.821Z,0.30
2018-09-18T09:54:26.350Z,0.30
2018-09-18T09:56:56.427Z,0.30
2018-09-18T09:59:26.512Z,0.30
2018-09-18T10:02:01.813Z,0.30
2018-09-18T10:04:31.900Z,0.30
2018-09-18T10:07:01.622Z,0.40
2018-09-18T10:09:31.402Z,0.37
2018-09-18T10:12:01.424Z,0.30
2018-09-18T10:14:31.036Z,0.40
2018-09-18T10:17:01.172Z,0.40
2018-09-18T10:19:30.584Z,0.50
2018-09-18T10:22:00.360Z,0.40
2018-09-18T10:24:30.019Z,0.30
2018-09-18T10:26:59.981Z,0.40
2018-09-18T10:29:29.594Z,0.30
2018-09-18T10:31:59.323Z,0.30
2018-09-18T10:34:28.797Z,0.40
2018-09-18T10:36:58.248Z,0.40
2018-09-18T10:39:27.698Z,0.40
2018-09-18T10:41:57.196Z,0.30
2018-09-18T10:44:26.634Z,0.40
2018-09-18T10:46:56.460Z,0.43
2018-09-18T10:49:27.561Z,0.30
2018-09-18T10:51:57.664Z,0.30
2018-09-18T10:54:27.744Z,0.33
2018-09-18T10:56:57.418Z,0.40
2018-09-18T10:59:27.247Z,0.40
2018-09-18T11:01:57.334Z,0.40
2018-09-18T11:04:27.060Z,0.30
2018-09-18T11:06:56.732Z,0.40
2018-09-18T11:09:26.528Z,0.30
2018-09-18T11:11:56.243Z,0.40
2018-09-18T11:14:25.710Z,0.30
2018-09-18T11:16:55.328Z,0.40
2018-09-18T11:19:25.110Z,0.63
2018-09-18T11:21:54.849Z,0.40
2018-09-18T11:24:24.768Z,0.40
2018-09-18T11:26:54.430Z,0.40
2018-09-18T11:29:24.271Z,0.40
2018-09-18T11:31:54.270Z,0.50
2018-09-18T11:34:23.918Z,0.40
2018-09-18T11:36:53.423Z,0.90
2018-09-18T11:39:23.224Z,0.40
2018-09-18T11:41:53.328Z,0.40
2018-09-18T11:44:23.043Z,0.40
2018-09-18T11:46:52.458Z,0.80
2018-09-18T11:49:22.499Z,0.40
2018-09-18T11:51:52.022Z,0.40
2018-09-18T11:54:21.496Z,0.50
2018-09-18T11:56:50.996Z,0.50
2018-09-18T11:59:20.800Z,0.50
2018-09-18T12:01:51.017Z,0.40
2018-09-18T12:04:20.672Z,1.90
2018-09-18T12:06:50.414Z,0.40
2018-09-18T12:09:20.461Z,0.40
2018-09-18T12:11:50.557Z,0.50
2018-09-18T12:14:20.588Z,0.40
2018-09-18T12:16:58.978Z,0.50
2018-09-18T12:19:28.678Z,0.60
2018-09-18T12:21:58.099Z,0.40
2018-09-18T12:24:27.554Z,0.40
2018-09-18T12:26:57.380Z,0.40
2018-09-18T12:29:27.197Z,0.40
2018-09-18T12:31:57.053Z,0.40
2018-09-18T12:34:26.716Z,0.40
2018-09-18T12:36:56.553Z,0.53
2018-09-18T12:39:26.872Z,0.50
2018-09-18T12:41:56.869Z,0.40
2018-09-18T12:44:26.260Z,0.50
2018-09-18T12:46:56.117Z,0.50
2018-09-18T12:49:26.305Z,0.50
2018-09-18T12:51:56.302Z,0.40
2018-09-18T12:54:26.379Z,0.50
2018-09-18T12:56:56.678Z,0.50
2018-09-18T12:59:26.288Z,0.70
2018-09-18T13:01:55.707Z,0.60
2018-09-18T13:04:25.577Z,0.57
2018-09-18T13:06:55.326Z,0.40
2018-09-18T13:09:25.224Z,0.40
2018-09-18T13:11:55.258Z,0.83
2018-09-18T13:14:24.892Z,0.50
2018-09-18T13:16:54.759Z,0.40
2018-09-18T13:19:25.536Z,0.50
2018-09-18T13:21:55.590Z,0.57
2018-09-18T13:24:25.712Z,0.40
2018-09-18T13:26:55.617Z,0.40
2018-09-18T13:29:25.624Z,0.40
2018-09-18T13:31:55.697Z,0.40
2018-09-18T13:34:25.806Z,0.40
2018-09-18T13:36:55.472Z,0.40
2018-09-18T13:39:25.342Z,0.40
2018-09-18T13:41:55.382Z,0.40
2018-09-18T13:44:25.678Z,0.47
2018-09-18T13:46:55.338Z,0.50
2018-09-18T13:49:25.111Z,0.50
2018-09-18T13:51:55.290Z,0.50
2018-09-18T13:54:25.926Z,0.40
2018-09-18T13:56:55.670Z,0.40
2018-09-18T13:59:25.505Z,0.40
2018-09-18T14:01:56.218Z,0.40
2018-09-18T14:04:25.959Z,0.40
2018-09-18T14:06:55.713Z,0.50
2018-09-18T14:09:25.444Z,0.40
2018-09-18T14:11:55.304Z,0.40
2018-09-18T14:14:25.082Z,0.70
2018-09-18T14:16:54.524Z,0.40
2018-09-18T14:19:24.332Z,0.40
2018-09-18T14:21:54.010Z,0.87
2018-09-18T14:24:23.456Z,0.63
2018-09-18T14:26:53.688Z,0.67
2018-09-18T14:29:23.526Z,0.40
2018-09-18T14:31:54.486Z,0.40
2018-09-18T14:34:24.747Z,0.90
2018-09-18T14:36:54.923Z,0.40
2018-09-18T14:39:24.734Z,0.50
2018-09-18T14:41:54.700Z,0.50
2018-09-18T14:44:24.413Z,0.90
2018-09-18T14:46:53.935Z,0.40
2018-09-18T14:49:23.684Z,1.17
2018-09-18T14:51:53.794Z,0.50
2018-09-18T14:54:23.437Z,0.40
2018-09-18T14:56:53.227Z,0.50
2018-09-18T14:59:23.263Z,1.17
2018-09-18T15:01:54.127Z,0.47
2018-09-18T15:04:23.751Z,0.50
2018-09-18T15:06:53.569Z,0.97
2018-09-18T15:09:23.535Z,1.10
2018-09-18T15:11:53.202Z,1.03
2018-09-18T15:14:22.724Z,1.30
2018-09-18T15:17:02.569Z,1.57
2018-09-18T15:19:32.717Z,2.17
2018-09-18T15:22:02.812Z,2.80
2018-09-18T15:24:32.456Z,5.03
2018-09-18T15:27:02.103Z,3.80
2018-09-18T15:29:31.581Z,2.20
2018-09-18T15:32:03.668Z,2.73
2018-09-18T15:34:33.399Z,1.80
2018-09-18T15:37:04.157Z,1.40
2018-09-18T15:39:33.847Z,2.10
2018-09-18T15:42:03.604Z,0.93
2018-09-18T15:44:33.623Z,2.40
2018-09-18T15:47:03.670Z,1.03
2018-09-18T15:49:33.289Z,1.90
2018-09-18T15:52:02.803Z,2.45
2018-09-18T15:54:32.574Z,1.57
2018-09-18T15:57:02.845Z,2.10
2018-09-18T15:59:32.496Z,2.73
2018-09-18T16:02:01.963Z,2.57
2018-09-18T16:04:31.870Z,3.40
2018-09-18T16:07:08.610Z,2.73
2018-09-18T16:09:40.618Z,3.83
2018-09-18T16:12:10.258Z,2.87
2018-09-18T16:14:40.684Z,3.77
2018-09-18T16:17:10.241Z,4.13
2018-09-18T16:19:39.805Z,3.03
2018-09-18T16:22:09.480Z,7.10
2018-09-18T16:24:39.038Z,5.62
2018-09-18T16:27:10.721Z,4.72
2018-09-18T16:29:40.632Z,4.60
2018-09-18T16:32:10.419Z,3.90
2018-09-18T16:34:41.497Z,2.57
2018-09-18T16:37:11.184Z,2.33
2018-09-18T16:39:42.189Z,1.93
2018-09-18T16:42:11.615Z,2.30
2018-09-18T16:44:41.031Z,2.03
2018-09-18T16:47:10.812Z,2.00
2018-09-18T16:49:40.241Z,1.97
2018-09-18T16:52:09.711Z,1.20
2018-09-18T16:54:39.399Z,5.73
2018-09-18T16:57:09.389Z,0.87
2018-09-18T16:59:39.497Z,0.53
2018-09-18T17:02:09.439Z,0.40
2018-09-18T17:04:39.222Z,0.40
2018-09-18T17:07:08.717Z,0.40
2018-09-18T17:09:38.552Z,1.13
2018-09-18T17:12:09.277Z,0.40
2018-09-18T17:14:39.343Z,0.40
2018-09-18T17:17:11.613Z,0.40
2018-09-18T17:19:41.064Z,0.40
2018-09-18T17:22:11.314Z,0.30
2018-09-18T17:24:41.257Z,0.40
2018-09-18T17:27:10.915Z,0.30
2018-09-18T17:29:41.022Z,0.40
2018-09-18T17:32:10.802Z,0.40
2018-09-18T17:34:40.803Z,0.40
2018-09-18T17:37:10.538Z,0.40
2018-09-18T17:39:40.392Z,0.30
2018-09-18T17:42:10.155Z,0.30
2018-09-18T17:44:39.583Z,0.40
2018-09-18T17:47:09.832Z,0.40
2018-09-18T17:49:39.463Z,0.30
2018-09-18T17:52:10.222Z,0.40
2018-09-18T17:54:40.254Z,0.30
2018-09-18T17:57:10.803Z,0.40
2018-09-18T17:59:40.435Z,0.30
2018-09-18T18:02:11.115Z,0.40
2018-09-18T18:04:46.181Z,0.50
2018-09-18T18:07:15.830Z,0.40
2018-09-18T18:09:47.583Z,0.40
2018-09-18T18:12:21.365Z,0.30
2018-09-18T18:14:51.728Z,0.40
2018-09-18T18:17:23.493Z,0.30
2018-09-18T18:19:53.677Z,0.40
2018-09-18T18:22:24.119Z,0.30
2018-09-18T18:24:55.139Z,0.40
2018-09-18T18:27:25.573Z,0.30
2018-09-18T18:29:55.439Z,0.33
2018-09-18T18:32:25.856Z,0.40
2018-09-18T18:34:55.726Z,0.40
2018-09-18T18:37:25.256Z,0.37
2018-09-18T18:39:54.677Z,0.40
2018-09-18T18:42:24.121Z,0.40
2018-09-18T18:44:53.917Z,0.30
2018-09-18T18:47:23.638Z,0.30
2018-09-18T18:49:54.167Z,0.30
2018-09-18T18:52:23.970Z,0.30
2018-09-18T18:54:53.973Z,1.43
2018-09-18T18:57:23.634Z,0.30
2018-09-18T18:59:53.095Z,0.30
2018-09-18T19:02:22.540Z,0.40
2018-09-18T19:04:52.325Z,0.40
2018-09-18T19:07:22.353Z,0.40
2018-09-18T19:09:52.368Z,0.40
2018-09-18T19:12:22.064Z,0.40
2018-09-18T19:14:52.306Z,0.40
2018-09-18T19:17:22.158Z,0.40
2018-09-18T19:19:52.141Z,0.40
2018-09-18T19:22:22.126Z,0.40
2018-09-18T19:24:52.145Z,0.30
2018-09-18T19:27:22.136Z,0.40
2018-09-18T19:29:51.774Z,1.10
2018-09-18T19:32:21.902Z,0.40
2018-09-18T19:34:51.542Z,0.33
2018-09-18T19:37:21.314Z,0.40
2018-09-18T19:39:51.013Z,1.03
2018-09-18T19:42:20.437Z,0.30
2018-09-18T19:44:50.355Z,0.40
2018-09-18T19:47:20.227Z,0.30
2018-09-18T19:49:49.686Z,0.30
2018-09-18T19:52:19.634Z,0.30
2018-09-18T19:54:49.674Z,0.40
2018-09-18T19:57:19.356Z,0.40
2018-09-18T19:59:48.830Z,0.40
2018-09-18T20:02:18.275Z,0.30
2018-09-18T20:04:48.103Z,0.30
2018-09-18T20:07:17.835Z,0.40
2018-09-18T20:09:47.288Z,0.40
2018-09-18T20:12:16.813Z,0.40
2018-09-18T20:14:46.984Z,0.37
2018-09-18T20:17:16.792Z,0.30
2018-09-18T20:19:46.963Z,0.40
2018-09-18T20:22:16.591Z,0.70
2018-09-18T20:24:46.010Z,0.40
2018-09-18T20:27:15.439Z,0.40
2018-09-18T20:29:45.314Z,0.40
2018-09-18T20:32:15.228Z,0.40
2018-09-18T20:34:44.837Z,0.40
2018-09-18T20:37:14.620Z,0.30
2018-09-18T20:39:44.250Z,1.03
2018-09-18T20:42:13.660Z,0.30
2018-09-18T20:44:43.538Z,0.30
2018-09-18T20:47:13.352Z,0.30
2018-09-18T20:49:42.776Z,0.37
2018-09-18T20:52:12.191Z,1.00
2018-09-18T20:54:42.038Z,0.40
2018-09-18T20:57:11.666Z,0.40
2018-09-18T20:59:41.080Z,0.40
2018-09-18T21:02:10.541Z,0.40
2018-09-18T21:04:40.056Z,0.30
2018-09-18T21:07:09.588Z,0.40
2018-09-18T21:09:39.358Z,0.30
2018-09-18T21:12:09.359Z,0.30
2018-09-18T21:14:39.017Z,0.30
2018-09-18T21:17:08.760Z,0.30
2018-09-18T21:19:39.396Z,0.40
2018-09-18T21:22:09.216Z,0.97
2018-09-18T21:24:38.945Z,0.40
2018-09-18T21:27:08.340Z,0.30
2018-09-18T21:29:37.744Z,0.30
2018-09-18T21:32:09.023Z,0.30
2018-09-18T21:34:38.622Z,0.40
2018-09-18T21:37:08.463Z,0.30
2018-09-18T21:39:38.090Z,0.30
2018-09-18T21:42:07.865Z,0.40
2018-09-18T21:44:37.487Z,0.40
2018-09-18T21:47:07.242Z,0.40
2018-09-18T21:49:37.212Z,0.40
2018-09-18T21:52:06.862Z,0.30
2018-09-18T21:54:36.658Z,0.30
2018-09-18T21:57:06.302Z,0.30
2018-09-18T21:59:36.081Z,0.30
2018-09-18T22:02:05.743Z,0.30
2018-09-18T22:04:35.466Z,0.30
2018-09-18T22:07:05.576Z,0.30
2018-09-18T22:09:35.490Z,0.40
2018-09-18T22:12:05.460Z,0.30
2018-09-18T22:14:35.392Z,0.40
2018-09-18T22:17:05.424Z,0.30
2018-09-18T22:19:35.065Z,0.40
2018-09-18T22:22:04.885Z,0.30
2018-09-18T22:24:34.540Z,0.37
2018-09-18T22:27:04.430Z,0.30
2018-09-18T22:29:34.040Z,0.80
2018-09-18T22:32:03.458Z,0.40
2018-09-18T22:34:33.184Z,0.30
2018-09-18T22:37:02.783Z,0.30
2018-09-18T22:39:32.518Z,0.40
2018-09-18T22:42:03.132Z,0.30
2018-09-18T22:44:33.084Z,0.30
2018-09-18T22:47:02.784Z,0.30
2018-09-18T22:49:32.556Z,0.40
2018-09-18T22:52:02.754Z,0.40
2018-09-18T22:54:32.716Z,0.40
2018-09-18T22:57:02.385Z,0.40
2018-09-18T22:59:31.811Z,0.30
2018-09-18T23:02:01.588Z,0.30
2018-09-18T23:04:33.553Z,0.40
2018-09-18T23:07:02.981Z,0.30
2018-09-18T23:09:32.403Z,0.30
2018-09-18T23:12:01.793Z,0.30
2018-09-18T23:14:31.659Z,0.40
2018-09-18T23:17:01.612Z,0.30
2018-09-18T23:19:31.637Z,0.40
2018-09-18T23:22:01.244Z,0.37
2018-09-18T23:24:30.705Z,0.30
2018-09-18T23:27:00.430Z,0.30
2018-09-18T23:29:30.428Z,0.40
2018-09-18T23:32:00.387Z,0.30
2018-09-18T23:34:30.014Z,0.30
2018-09-18T23:36:59.776Z,0.30
2018-09-18T23:39:29.407Z,0.30
2018-09-18T23:41:58.828Z,0.30
2018-09-18T23:44:28.858Z,0.30
2018-09-18T23:46:58.460Z,0.30
2018-09-18T23:49:27.976Z,0.30
2018-09-18T23:51:57.398Z,0.30
2018-09-18T23:54:27.175Z,0.40
2018-09-18T23:56:56.654Z,0.40
2018-09-18T23:59:26.072Z,0.30
